Time;durP1;ratioP1;P1;durP2;ratioP2;P2;SDS_P1;SDS_P2;PMS_P1;PMS_P2;Temp;Humidity;BMP_temperature;BMP_pressure;BME280_temperature;BME280_humidity;BME280_pressure;Samples;Min_cycle;Max_cycle;Signal;HPM_P1;HPM_P2
2022/05/18 00:00:31;;;;;;;;;;;;;;;34.97;21.12;100638.53;4409278;32;20613;-68
2022/05/18 00:02:58;;;;;;;;;;;;;;;35.14;20.96;100640.56;4407211;32;20017;-68
2022/05/18 00:05:24;;;;;;;;;;;;;;;35.13;20.79;100653.66;4407418;32;19962;-68
2022/05/18 00:07:50;;;;;;;;;;;;;;;34.57;21.36;100641.16;4406653;32;19965;-68
2022/05/18 00:10:16;;;;;;;;;;;;;;;34.47;21.42;100654.97;4409345;32;20060;-68
2022/05/18 00:12:44;;;;;;;;;;;;;;;33.99;21.85;100648.09;4406705;32;20422;-68
2022/05/18 00:15:10;;;;;;;;;;;;;;;34.55;21.47;100652.69;4407783;32;20516;-68
2022/05/18 00:17:36;;;;;;;;;;;;;;;35.04;20.88;100663.19;4409054;32;19998;-68
2022/05/18 00:20:02;;;;;;;;;;;;;;;34.91;21.06;100655.59;4407445;32;20724;-68
2022/05/18 00:22:28;;;;;;;;;;;;;;;34.31;21.27;100668.25;4406635;32;20004;-68
2022/05/18 00:24:55;;;;;;;;;;;;;;;34.18;21.57;100660.63;4408710;32;20017;-68
2022/05/18 00:27:20;;;;;;;;;;;;;;;34.46;21.37;100665.13;4408197;32;19996;-68
2022/05/18 00:29:46;;;;;;;;;;;;;;;34.66;21.16;100663.81;4407856;32;19969;-68
2022/05/18 00:32:11;;;;;;;;;;;;;;;34.67;21.26;100664.59;4408355;32;20371;-68
2022/05/18 00:34:36;;;;;;;;;;;;;;;34.89;20.87;100670.06;4409403;32;20362;-68
2022/05/18 00:37:02;;;;;;;;;;;;;;;34.51;21.36;100675.00;4406296;32;20032;-68
2022/05/18 00:39:27;;;;;;;;;;;;;;;35.10;20.70;100684.13;4408342;32;19957;-68
2022/05/18 00:41:53;;;;;;;;;;;;;;;35.04;20.80;100678.59;4408633;32;20328;-68
2022/05/18 00:44:18;;;;;;;;;;;;;;;34.79;20.92;100678.03;4408355;32;19994;-69
2022/05/18 00:46:44;;;;;;;;;;;;;;;35.02;20.74;100692.25;4407161;32;20009;-68
2022/05/18 00:49:10;;;;;;;;;;;;;;;35.30;20.53;100689.41;4407919;32;19985;-68
2022/05/18 00:54:14;;;;;;;;;;;;;;;35.54;20.54;100694.22;3948059;32;15832493;-69
2022/05/18 00:56:46;;;;;;;;;;;;;;;35.54;20.54;100694.22;4427468;32;19962;-69
2022/05/18 00:59:15;;;;;;;;;;;;;;;35.09;20.66;100695.06;4428220;32;20038;-69
2022/05/18 01:01:41;;;;;;;;;;;;;;;35.11;20.93;100700.28;4430027;32;20001;-69
2022/05/18 01:04:08;;;;;;;;;;;;;;;34.95;20.96;100701.94;4428855;32;20318;-69
2022/05/18 01:06:53;;;;;;;;;;;;;;;34.59;21.30;100704.84;4428283;32;19963;-69
2022/05/18 01:11:55;;;;;;;;;;;;;;;34.62;21.21;100706.56;3950731;32;15724534;-69
2022/05/18 01:14:26;;;;;;;;;;;;;;;34.73;21.02;100724.31;4428773;32;19993;-69
2022/05/18 01:16:52;;;;;;;;;;;;;;;34.99;20.75;100723.50;4427521;32;19973;-69
2022/05/18 01:19:24;;;;;;;;;;;;;;;35.03;20.78;100717.97;4427078;32;20003;-69
2022/05/18 01:21:55;;;;;;;;;;;;;;;34.89;20.97;100730.72;4427025;32;20310;-69
2022/05/18 01:24:27;;;;;;;;;;;;;;;34.98;20.80;100733.69;4427313;32;20413;-69
2022/05/18 01:26:53;;;;;;;;;;;;;;;34.47;21.15;100728.03;4427986;32;19962;-69
2022/05/18 01:29:21;;;;;;;;;;;;;;;34.35;21.25;100719.03;4429047;32;19992;-69
2022/05/18 01:34:24;;;;;;;;;;;;;;;34.69;21.00;100712.28;3951486;32;15724653;-69
2022/05/18 01:36:50;;;;;;;;;;;;;;;34.69;21.00;100712.28;4429672;32;20244;-69
2022/05/18 01:39:19;;;;;;;;;;;;;;;33.55;22.04;100708.56;4430965;32;20366;-69
2022/05/18 01:41:49;;;;;;;;;;;;;;;33.20;22.44;100706.97;4425095;32;20005;-69
2022/05/18 01:44:14;;;;;;;;;;;;;;;33.57;21.81;100705.81;4416036;32;19965;-69
2022/05/18 01:46:40;;;;;;;;;;;;;;;33.50;22.19;100695.78;4428804;32;20358;-69
2022/05/18 01:49:06;;;;;;;;;;;;;;;34.15;21.52;100708.59;4426370;32;20374;-69
2022/05/18 01:51:34;;;;;;;;;;;;;;;34.47;21.23;100707.56;4425879;32;20376;-69
2022/05/18 01:54:00;;;;;;;;;;;;;;;34.39;21.38;100707.69;4430443;32;20390;-69
2022/05/18 01:56:25;;;;;;;;;;;;;;;34.32;21.35;100716.53;4427957;32;20331;-69
2022/05/18 01:58:51;;;;;;;;;;;;;;;34.00;21.58;100717.59;4426620;32;20008;-69
2022/05/18 02:01:17;;;;;;;;;;;;;;;34.35;21.25;100715.31;4430089;32;20001;-69
2022/05/18 02:03:42;;;;;;;;;;;;;;;33.90;21.75;100721.81;4427635;32;19976;-69
2022/05/18 02:06:08;;;;;;;;;;;;;;;33.33;22.23;100715.41;4427580;32;20000;-69
2022/05/18 02:08:34;;;;;;;;;;;;;;;33.86;21.71;100721.41;4423094;32;20034;-69
2022/05/18 02:10:59;;;;;;;;;;;;;;;33.15;22.55;100719.66;4427306;32;20033;-69
2022/05/18 02:13:26;;;;;;;;;;;;;;;33.70;22.06;100734.66;4426066;32;19980;-69
2022/05/18 02:15:51;;;;;;;;;;;;;;;33.53;22.08;100741.25;4428456;32;20354;-69
2022/05/18 02:18:17;;;;;;;;;;;;;;;33.84;21.85;100735.87;4427521;32;20416;-69
2022/05/18 02:20:42;;;;;;;;;;;;;;;33.36;22.40;100734.63;4425509;32;20406;-69
2022/05/18 02:23:08;;;;;;;;;;;;;;;33.32;22.38;100740.12;4427366;32;20331;-69
2022/05/18 02:25:34;;;;;;;;;;;;;;;33.73;21.95;100743.00;4425062;32;19958;-69
2022/05/18 02:28:00;;;;;;;;;;;;;;;33.75;22.05;100740.22;4429552;32;19992;-69
2022/05/18 02:30:25;;;;;;;;;;;;;;;33.47;22.28;100740.00;4428161;32;19981;-69
2022/05/18 02:32:51;;;;;;;;;;;;;;;33.63;22.16;100738.44;4425048;32;19994;-69
2022/05/18 02:35:17;;;;;;;;;;;;;;;33.31;22.50;100738.56;4424544;32;20347;-69
2022/05/18 02:37:42;;;;;;;;;;;;;;;33.25;22.39;100732.97;4426297;32;20009;-69
2022/05/18 02:40:08;;;;;;;;;;;;;;;33.84;22.00;100750.47;4427115;32;20632;-69
2022/05/18 02:42:34;;;;;;;;;;;;;;;33.31;22.51;100756.84;4425728;32;20007;-69
2022/05/18 02:45:00;;;;;;;;;;;;;;;33.48;22.34;100761.97;4405051;32;20008;-69
2022/05/18 02:47:25;;;;;;;;;;;;;;;33.15;22.64;100760.50;4416363;32;19998;-69
2022/05/18 02:49:51;;;;;;;;;;;;;;;32.79;23.04;100755.13;4416334;32;19972;-69
2022/05/18 02:52:17;;;;;;;;;;;;;;;33.09;22.84;100751.22;4415427;32;19988;-69
2022/05/18 02:57:28;;;;;;;;;;;;;;;33.10;22.78;100752.78;4414446;32;19993;-69
2022/05/18 02:59:54;;;;;;;;;;;;;;;32.63;23.24;100760.28;4416752;32;19972;-69
2022/05/18 03:02:19;;;;;;;;;;;;;;;32.34;23.62;100756.19;4417312;32;20030;-69
2022/05/18 03:04:45;;;;;;;;;;;;;;;32.56;23.31;100751.59;4414739;32;20424;-69
2022/05/18 03:07:10;;;;;;;;;;;;;;;32.77;23.05;100751.25;4412895;32;20018;-69
2022/05/18 03:09:36;;;;;;;;;;;;;;;32.67;23.20;100759.88;4414573;32;20019;-69
2022/05/18 03:12:02;;;;;;;;;;;;;;;32.32;23.52;100758.91;4417420;32;20497;-69
2022/05/18 03:14:27;;;;;;;;;;;;;;;32.94;22.89;100765.94;4416634;32;20001;-69
2022/05/18 03:16:53;;;;;;;;;;;;;;;32.65;22.95;100775.03;4414747;32;19993;-69
2022/05/18 03:19:19;;;;;;;;;;;;;;;33.00;22.72;100778.12;4416923;32;19966;-69
2022/05/18 03:24:29;;;;;;;;;;;;;;;32.51;23.15;100770.88;4416120;32;19958;-69
2022/05/18 03:26:55;;;;;;;;;;;;;;;31.85;23.87;100773.50;4418474;32;20377;-69
2022/05/18 03:29:20;;;;;;;;;;;;;;;31.65;24.15;100774.47;4403975;32;20292;-69
2022/05/18 03:31:48;;;;;;;;;;;;;;;31.96;23.59;100766.44;4414933;32;19966;-69
2022/05/18 03:34:14;;;;;;;;;;;;;;;31.52;24.16;100762.28;4412098;32;20382;-69
2022/05/18 03:36:40;;;;;;;;;;;;;;;31.65;24.08;100777.38;4414349;32;20008;-69
2022/05/18 03:39:06;;;;;;;;;;;;;;;32.11;23.53;100772.19;4416731;32;19972;-69
2022/05/18 03:41:34;;;;;;;;;;;;;;;32.06;23.51;100773.97;4416962;32;19990;-69
2022/05/18 03:44:00;;;;;;;;;;;;;;;32.70;22.92;100781.25;4415093;32;20030;-69
2022/05/18 03:46:27;;;;;;;;;;;;;;;32.68;22.69;100794.25;4417024;32;19957;-69
2022/05/18 03:48:52;;;;;;;;;;;;;;;32.94;22.51;100792.94;4417780;32;20033;-69
2022/05/18 03:51:18;;;;;;;;;;;;;;;32.29;23.01;100803.00;4414495;32;21093;-69
2022/05/18 03:53:43;;;;;;;;;;;;;;;32.81;22.54;100812.81;4415819;32;20027;-69
2022/05/18 03:56:09;;;;;;;;;;;;;;;33.09;22.33;100821.19;4414547;32;19949;-69
2022/05/18 03:58:35;;;;;;;;;;;;;;;33.39;21.97;100827.59;4416255;32;20306;-69
2022/05/18 04:01:08;;;;;;;;;;;;;;;33.42;21.89;100829.31;4414590;32;20049;-69
2022/05/18 04:03:34;;;;;;;;;;;;;;;33.39;21.74;100835.56;4413044;32;19958;-70
2022/05/18 04:05:59;;;;;;;;;;;;;;;33.27;21.86;100840.31;4416097;32;20324;-69
2022/05/18 04:08:25;;;;;;;;;;;;;;;33.09;21.88;100851.16;4413398;32;20417;-69
2022/05/18 04:10:50;;;;;;;;;;;;;;;33.64;21.57;100842.94;4416325;32;19980;-69
2022/05/18 04:13:18;;;;;;;;;;;;;;;33.57;21.69;100858.38;4414211;32;20038;-69
2022/05/18 04:15:43;;;;;;;;;;;;;;;34.00;21.16;100854.06;4417393;32;20391;-69
2022/05/18 04:18:09;;;;;;;;;;;;;;;33.99;21.20;100853.28;4410571;32;20107;-69
2022/05/18 04:20:34;;;;;;;;;;;;;;;33.89;21.25;100857.47;4418703;32;20569;-69
2022/05/18 04:23:00;;;;;;;;;;;;;;;34.03;21.22;100868.25;4415156;32;19941;-69
2022/05/18 04:25:26;;;;;;;;;;;;;;;34.06;21.28;100863.34;4413286;32;19969;-69
2022/05/18 04:27:52;;;;;;;;;;;;;;;34.26;21.16;100867.97;4413716;32;20012;-69
2022/05/18 04:30:21;;;;;;;;;;;;;;;34.45;20.93;100868.16;4416537;32;19961;-69
2022/05/18 04:32:48;;;;;;;;;;;;;;;34.19;21.07;100868.84;4415773;32;20115;-69
2022/05/18 04:35:16;;;;;;;;;;;;;;;34.03;21.29;100867.47;4416403;32;19965;-69
2022/05/18 04:37:41;;;;;;;;;;;;;;;33.38;21.77;100869.03;4416263;32;20030;-69
2022/05/18 04:40:08;;;;;;;;;;;;;;;33.36;21.83;100849.19;4416435;32;20318;-70
2022/05/18 04:42:33;;;;;;;;;;;;;;;33.02;22.18;100848.28;4411479;32;20032;-69
2022/05/18 04:44:58;;;;;;;;;;;;;;;33.38;21.77;100858.13;4415018;32;20595;-69
2022/05/18 04:47:25;;;;;;;;;;;;;;;33.20;21.83;100847.78;4414035;32;20363;-69
2022/05/18 04:49:51;;;;;;;;;;;;;;;32.88;22.14;100864.53;4415465;32;19997;-69
2022/05/18 04:52:18;;;;;;;;;;;;;;;32.53;22.62;100857.69;4413965;32;20004;-69
2022/05/18 04:54:44;;;;;;;;;;;;;;;32.98;22.26;100863.28;4413473;32;20001;-69
2022/05/18 04:57:10;;;;;;;;;;;;;;;32.81;22.41;100863.16;4416101;32;19972;-69
2022/05/18 04:59:35;;;;;;;;;;;;;;;33.40;21.54;100875.81;4416201;32;19968;-69
2022/05/18 05:02:01;;;;;;;;;;;;;;;33.83;21.33;100884.00;4412048;32;20237;-69
2022/05/18 05:04:26;;;;;;;;;;;;;;;33.38;21.69;100872.72;4415192;32;20016;-69
2022/05/18 05:06:52;;;;;;;;;;;;;;;33.96;21.10;100877.09;4411977;32;20009;-70
2022/05/18 05:09:17;;;;;;;;;;;;;;;34.20;20.99;100884.97;4415023;32;20116;-69
2022/05/18 05:11:43;;;;;;;;;;;;;;;34.55;20.77;100891.59;4415043;32;20350;-69
2022/05/18 05:14:09;;;;;;;;;;;;;;;34.64;20.54;100876.28;4415112;32;19997;-69
2022/05/18 05:16:34;;;;;;;;;;;;;;;34.55;20.71;100900.38;4413552;32;19984;-69
2022/05/18 05:19:00;;;;;;;;;;;;;;;34.03;21.09;100899.59;4413940;32;20005;-70
2022/05/18 05:21:25;;;;;;;;;;;;;;;33.97;21.07;100902.00;4417068;32;20001;-69
2022/05/18 05:23:51;;;;;;;;;;;;;;;34.65;20.70;100899.06;4415791;32;19997;-69
2022/05/18 05:26:17;;;;;;;;;;;;;;;34.26;21.02;100894.25;4413797;32;20409;-69
2022/05/18 05:28:42;;;;;;;;;;;;;;;34.27;20.73;100898.75;4413965;32;19958;-69
2022/05/18 05:31:09;;;;;;;;;;;;;;;34.26;20.88;100897.19;4414372;32;20000;-69
2022/05/18 05:33:36;;;;;;;;;;;;;;;34.49;20.66;100899.88;4413683;32;20403;-69
2022/05/18 05:36:02;;;;;;;;;;;;;;;34.52;20.52;100904.50;4416151;32;19961;-69
2022/05/18 05:38:28;;;;;;;;;;;;;;;34.55;20.59;100909.94;4413440;32;19968;-70
2022/05/18 05:40:55;;;;;;;;;;;;;;;34.56;20.58;100913.59;4413424;32;19965;-70
2022/05/18 05:43:20;;;;;;;;;;;;;;;34.80;20.41;100916.41;4413142;32;20009;-70
2022/05/18 05:45:56;;;;;;;;;;;;;;;33.56;21.40;100915.19;4414778;32;20024;-70
2022/05/18 05:48:21;;;;;;;;;;;;;;;34.42;20.50;100924.13;4413127;32;19988;-69
2022/05/18 05:50:47;;;;;;;;;;;;;;;34.28;20.86;100920.75;4413072;32;19997;-69
2022/05/18 05:53:12;;;;;;;;;;;;;;;34.84;20.33;100924.75;4412403;32;19972;-69
2022/05/18 05:55:38;;;;;;;;;;;;;;;34.79;20.18;100935.34;4400240;32;20057;-69
2022/05/18 05:58:03;;;;;;;;;;;;;;;34.67;20.60;100933.56;4415643;32;20001;-70
2022/05/18 06:00:29;;;;;;;;;;;;;;;34.17;21.17;100936.62;4412709;32;20016;-69
2022/05/18 06:02:55;;;;;;;;;;;;;;;34.06;21.16;100940.06;4415092;32;20019;-69
2022/05/18 06:05:20;;;;;;;;;;;;;;;34.20;21.24;100946.34;4413919;32;19961;-69
2022/05/18 06:07:46;;;;;;;;;;;;;;;34.03;21.19;100938.34;4412171;32;20430;-69
2022/05/18 06:10:12;;;;;;;;;;;;;;;34.36;20.96;100939.75;4413382;32;19997;-70
2022/05/18 06:12:38;;;;;;;;;;;;;;;33.83;21.53;100948.22;4415596;32;19999;-69
2022/05/18 06:15:04;;;;;;;;;;;;;;;34.70;20.67;100956.53;4414791;32;19966;-69
2022/05/18 06:17:30;;;;;;;;;;;;;;;34.67;20.74;100951.87;4399846;32;19968;-69
2022/05/18 06:19:56;;;;;;;;;;;;;;;34.68;20.84;100962.19;4414316;32;19996;-69
2022/05/18 06:22:21;;;;;;;;;;;;;;;34.28;21.18;100956.59;4418083;32;20041;-69
2022/05/18 06:24:51;;;;;;;;;;;;;;;35.07;20.64;100952.34;4417365;32;19991;-69
2022/05/18 06:27:17;;;;;;;;;;;;;;;35.11;20.62;100957.75;4415568;32;20076;-68
2022/05/18 06:29:42;;;;;;;;;;;;;;;34.83;20.74;100961.22;4412116;32;20331;-70
2022/05/18 06:32:08;;;;;;;;;;;;;;;34.64;20.89;100961.84;4419141;32;20000;-69
2022/05/18 06:34:33;;;;;;;;;;;;;;;34.92;20.75;100963.47;4415095;32;19985;-69
2022/05/18 06:36:59;;;;;;;;;;;;;;;34.93;20.55;100967.94;4416194;32;19997;-69
2022/05/18 06:39:24;;;;;;;;;;;;;;;34.12;21.50;100966.84;4413035;32;20056;-69
2022/05/18 06:41:50;;;;;;;;;;;;;;;35.27;20.49;100967.84;4412052;32;19953;-70
2022/05/18 06:44:16;;;;;;;;;;;;;;;34.38;21.34;100971.31;4410072;32;20998;-69
2022/05/18 06:46:42;;;;;;;;;;;;;;;35.00;20.92;100964.91;4407582;32;20348;-69
2022/05/18 06:49:10;;;;;;;;;;;;;;;34.61;20.97;100965.97;4406162;32;20089;-69
2022/05/18 06:51:38;;;;;;;;;;;;;;;35.15;20.81;100961.78;4410387;32;20020;-69
2022/05/18 06:54:04;;;;;;;;;;;;;;;33.76;21.84;100963.69;4406279;32;20429;-69
2022/05/18 06:56:30;;;;;;;;;;;;;;;34.58;20.86;100975.19;4407669;32;20501;-69
2022/05/18 06:58:57;;;;;;;;;;;;;;;34.99;20.65;100974.28;4411797;32;19998;-69
2022/05/18 07:01:24;;;;;;;;;;;;;;;34.30;21.34;100977.19;4410674;32;19985;-69
2022/05/18 07:03:49;;;;;;;;;;;;;;;34.94;20.89;100972.44;4405191;32;19961;-69
2022/05/18 07:06:18;;;;;;;;;;;;;;;34.36;21.33;100974.06;4407864;32;20015;-70
2022/05/18 07:08:43;;;;;;;;;;;;;;;34.94;20.67;100981.94;4410923;32;20023;-70
2022/05/18 07:11:09;;;;;;;;;;;;;;;35.70;19.90;100985.34;4406377;32;20008;-70
2022/05/18 07:13:34;;;;;;;;;;;;;;;36.17;19.74;100990.63;4407770;32;20488;-69
2022/05/18 07:16:01;;;;;;;;;;;;;;;35.21;20.50;100988.59;4410279;32;20012;-70
2022/05/18 07:18:29;;;;;;;;;;;;;;;36.23;19.47;100996.19;4407113;32;20404;-71
2022/05/18 07:20:56;;;;;;;;;;;;;;;35.05;20.50;100998.97;4405893;32;19996;-69
2022/05/18 07:23:22;;;;;;;;;;;;;;;35.60;19.86;101002.13;4408778;32;21015;-70
2022/05/18 07:25:47;;;;;;;;;;;;;;;35.82;19.53;100992.22;4405762;32;20017;-70
2022/05/18 07:28:13;;;;;;;;;;;;;;;35.34;20.09;100999.19;4405860;32;19980;-70
2022/05/18 07:30:39;;;;;;;;;;;;;;;34.98;20.43;100994.00;4409871;32;19985;-70
2022/05/18 07:33:04;;;;;;;;;;;;;;;35.94;19.55;100995.34;4407067;32;20072;-70
2022/05/18 07:35:30;;;;;;;;;;;;;;;35.04;20.12;100999.59;4405589;32;20008;-71
2022/05/18 07:37:57;;;;;;;;;;;;;;;36.17;19.03;100999.41;4402189;32;20011;-71
2022/05/18 07:40:23;;;;;;;;;;;;;;;35.83;19.39;101007.66;4407841;32;20000;-70
2022/05/18 07:42:49;;;;;;;;;;;;;;;34.95;19.78;101006.91;4407936;32;20003;-71
2022/05/18 07:45:14;;;;;;;;;;;;;;;35.55;19.37;101003.16;4407298;32;20015;-71
2022/05/18 07:47:40;;;;;;;;;;;;;;;35.43;19.36;101008.03;4407581;32;20028;-71
2022/05/18 07:50:06;;;;;;;;;;;;;;;34.81;19.80;101007.84;4403786;32;20383;-71
2022/05/18 07:52:32;;;;;;;;;;;;;;;35.70;18.95;101011.72;4405178;32;19961;-71
2022/05/18 07:54:58;;;;;;;;;;;;;;;35.55;18.95;101009.00;4402750;32;20145;-72
2022/05/18 07:57:24;;;;;;;;;;;;;;;35.50;18.97;101024.72;4410718;32;20026;-71
2022/05/18 07:59:54;;;;;;;;;;;;;;;35.40;19.22;101029.72;4410877;32;19996;-71
2022/05/18 08:02:19;;;;;;;;;;;;;;;36.22;18.66;101029.06;4403266;32;20510;-71
2022/05/18 08:04:45;;;;;;;;;;;;;;;36.25;18.39;101024.91;4403823;32;19962;-71
2022/05/18 08:07:11;;;;;;;;;;;;;;;37.16;17.60;101018.81;4408594;32;20012;-70
2022/05/18 08:15:05;;;;;;;;;;;;;;;36.13;17.94;101024.69;4406577;32;20028;-71
2022/05/18 08:15:07;;;;;;;;;;;;;;;36.53;17.52;101027.13;4408256;32;20422;-70
2022/05/18 08:17:33;;;;;;;;;;;;;;;35.88;17.97;101027.06;4411184;32;20003;-70
2022/05/18 08:20:02;;;;;;;;;;;;;;;36.15;17.46;101021.94;4397176;32;20245;-70
2022/05/18 08:22:28;;;;;;;;;;;;;;;37.07;16.86;101020.37;4407205;32;20555;-70
2022/05/18 08:24:53;;;;;;;;;;;;;;;37.51;16.66;101025.84;4410211;32;20222;-70
2022/05/18 08:27:19;;;;;;;;;;;;;;;36.57;17.12;101036.25;4409401;32;19985;-70
2022/05/18 08:29:45;;;;;;;;;;;;;;;36.18;17.50;101027.34;4408116;32;20039;-70
2022/05/18 08:32:11;;;;;;;;;;;;;;;36.40;16.88;101022.47;4404584;32;20013;-70
2022/05/18 08:34:36;;;;;;;;;;;;;;;36.63;16.67;101030.84;4408599;32;20021;-71
2022/05/18 08:37:02;;;;;;;;;;;;;;;36.32;17.06;101021.81;4409679;32;20080;-70
2022/05/18 08:39:28;;;;;;;;;;;;;;;37.22;16.93;101028.09;4403985;32;20267;-69
2022/05/18 08:41:56;;;;;;;;;;;;;;;37.13;16.68;101034.72;4406868;32;20021;-72
2022/05/18 08:44:25;;;;;;;;;;;;;;;36.84;16.97;101031.03;4406815;32;20099;-71
2022/05/18 08:57:29;;;;;;;;;;;;;;;37.40;16.07;101058.81;3952581;31;15738013;-74
2022/05/18 08:59:58;;;;;;;;;;;;;;;37.40;16.07;101058.81;4425532;32;20017;-73
2022/05/18 09:02:26;;;;;;;;;;;;;;;36.96;16.22;101050.31;4423217;32;21292;-70
2022/05/18 09:04:59;;;;;;;;;;;;;;;38.70;15.40;101041.09;4420806;32;20553;-70
2022/05/18 09:07:27;;;;;;;;;;;;;;;38.24;15.99;101046.63;4423751;32;19968;-70
2022/05/18 09:12:30;;;;;;;;;;;;;;;39.43;15.31;101051.34;3955416;31;15717544;-72
2022/05/18 09:14:56;;;;;;;;;;;;;;;39.43;15.31;101051.34;4427989;32;20011;-71
2022/05/18 09:20:17;;;;;;;;;;;;;;;40.35;14.11;101058.75;3943684;32;15723373;-71
2022/05/18 09:25:45;;;;;;;;;;;;;;;39.07;14.74;101042.97;3944253;32;15726586;-69
2022/05/18 09:28:26;;;;;;;;;;;;;;;39.07;14.74;101042.97;4425157;32;19996;-69
2022/05/18 09:31:08;;;;;;;;;;;;;;;39.11;14.99;101057.97;4418501;32;20448;-71
2022/05/18 09:33:54;;;;;;;;;;;;;;;39.91;14.64;101059.66;4424566;32;20548;-70
2022/05/18 09:36:39;;;;;;;;;;;;;;;39.72;14.86;101056.88;4425505;32;20004;-69
2022/05/18 09:39:08;;;;;;;;;;;;;;;40.56;14.15;101061.56;4426519;32;19997;-69
2022/05/18 09:41:39;;;;;;;;;;;;;;;40.62;13.77;101053.84;4426438;32;20000;-71
2022/05/18 09:44:19;;;;;;;;;;;;;;;40.81;13.57;101064.59;4425524;32;20035;-70
2022/05/18 09:46:46;;;;;;;;;;;;;;;40.22;14.16;101060.16;4427146;32;19962;-71
2022/05/18 09:49:33;;;;;;;;;;;;;;;40.16;13.99;101083.38;4428958;32;20020;-70
2022/05/18 09:52:00;;;;;;;;;;;;;;;40.20;13.97;101076.94;4426384;32;20549;-70
2022/05/18 09:54:27;;;;;;;;;;;;;;;40.18;13.67;101073.87;4421707;32;20051;-72
2022/05/18 09:56:57;;;;;;;;;;;;;;;39.75;13.75;101084.34;4429970;32;20396;-72
2022/05/18 09:59:28;;;;;;;;;;;;;;;39.85;13.54;101068.09;4428978;32;19988;-71
2022/05/18 10:07:30;;;;;;;;;;;;;;;39.72;14.24;101054.72;4420295;32;19949;-70
2022/05/18 10:10:08;;;;;;;;;;;;;;;41.10;13.40;101062.72;4427444;32;20017;-71
2022/05/18 10:12:39;;;;;;;;;;;;;;;41.04;13.46;101043.87;4423379;32;20024;-71
2022/05/18 10:15:21;;;;;;;;;;;;;;;41.47;13.40;101050.09;4427795;32;19968;-71
2022/05/18 10:17:50;;;;;;;;;;;;;;;42.87;12.49;101052.03;4424953;32;19993;-71
2022/05/18 10:20:35;;;;;;;;;;;;;;;42.57;12.57;101050.41;4426905;32;19957;-72
2022/05/18 10:23:01;;;;;;;;;;;;;;;41.63;12.81;101045.91;4426261;32;20415;-71
2022/05/18 10:28:16;;;;;;;;;;;;;;;41.16;13.23;101056.41;3942493;32;15723520;-70
2022/05/18 10:30:52;;;;;;;;;;;;;;;40.01;13.56;101053.63;4418418;32;20000;-71
2022/05/18 10:35:53;;;;;;;;;;;;;;;40.56;12.96;101052.72;3943792;32;15723569;-71
2022/05/18 10:41:05;;;;;;;;;;;;;;;41.57;12.46;101048.50;3943644;32;15723356;-70
2022/05/18 10:46:16;;;;;;;;;;;;;;;41.81;12.20;101052.81;3942991;32;15727486;-71
2022/05/18 10:48:44;;;;;;;;;;;;;;;41.81;12.20;101052.81;4418632;32;20403;-71
2022/05/18 10:51:11;;;;;;;;;;;;;;;40.91;12.25;101044.53;4419219;32;19956;-70
2022/05/18 10:53:39;;;;;;;;;;;;;;;41.24;12.18;101039.94;4414587;32;21128;-70
2022/05/18 10:56:07;;;;;;;;;;;;;;;41.00;12.77;101029.63;4417044;32;20353;-70
2022/05/18 11:04:02;;;;;;;;;;;;;;;41.86;12.98;101042.78;3948687;31;15717520;-69
2022/05/18 11:06:30;;;;;;;;;;;;;;;41.86;12.98;101042.78;4431106;32;20277;-70
2022/05/18 11:08:59;;;;;;;;;;;;;;;41.93;12.96;101038.75;4433948;32;20032;-70
2022/05/18 11:11:44;;;;;;;;;;;;;;;42.70;12.63;101040.78;4432767;32;19957;-71
2022/05/18 11:17:13;;;;;;;;;;;;;;;43.74;12.09;101024.59;3940025;32;15722482;-72
2022/05/18 11:19:58;;;;;;;;;;;;;;;44.55;11.54;101029.91;4412325;32;19953;-70
2022/05/18 11:22:44;;;;;;;;;;;;;;;44.53;11.24;101026.84;4414898;32;20343;-70
2022/05/18 11:28:07;;;;;;;;;;;;;;;43.38;12.03;101044.31;3939414;32;15725393;-71
2022/05/18 11:30:53;;;;;;;;;;;;;;;43.38;12.03;101044.31;4420112;32;19953;-71
2022/05/18 11:33:25;;;;;;;;;;;;;;;43.49;11.78;101034.50;4415941;32;20009;-70
2022/05/18 11:36:11;;;;;;;;;;;;;;;43.01;12.23;101026.09;4422520;32;20030;-70
2022/05/18 11:41:36;;;;;;;;;;;;;;;44.39;11.48;101017.31;3933888;32;15779416;-71
2022/05/18 11:52:15;;;;;;;;;;;;;;;44.66;11.21;101005.19;3954735;31;15718047;-72
2022/05/18 12:00:15;;;;;;;;;;;;;;;44.01;12.03;101003.63;3941138;32;15723301;-70
2022/05/18 12:02:54;;;;;;;;;;;;;;;43.56;12.30;100994.84;4414930;32;20038;-70
2022/05/18 12:05:28;;;;;;;;;;;;;;;43.51;12.45;100999.03;4402893;32;20008;-71
2022/05/18 12:10:42;;;;;;;;;;;;;;;44.03;12.39;100988.91;3941194;32;15723976;-71
2022/05/18 12:13:13;;;;;;;;;;;;;;;44.03;12.39;100988.91;4417052;32;20373;-71
2022/05/18 12:18:40;;;;;;;;;;;;;;;44.71;11.51;100989.84;3941294;32;15722590;-71
2022/05/18 12:21:09;;;;;;;;;;;;;;;44.71;11.51;100989.84;4423597;32;20032;-71
2022/05/18 12:23:37;;;;;;;;;;;;;;;44.39;11.75;100981.69;4419178;32;20243;-70
2022/05/18 12:26:02;;;;;;;;;;;;;;;44.27;11.71;100978.19;4424568;32;19997;-71
2022/05/18 12:28:28;;;;;;;;;;;;;;;44.02;12.05;100985.16;4419087;32;20426;-71
2022/05/18 12:30:56;;;;;;;;;;;;;;;43.35;12.39;100992.31;4418643;32;19993;-72
2022/05/18 12:33:24;;;;;;;;;;;;;;;43.62;12.42;100989.22;4421292;32;19953;-72
2022/05/18 12:38:36;;;;;;;;;;;;;;;43.59;11.81;100972.75;3944725;32;15722586;-72
2022/05/18 12:41:09;;;;;;;;;;;;;;;43.59;11.81;100972.75;4429739;32;20054;-72
2022/05/18 12:49:08;;;;;;;;;;;;;;;43.72;12.20;100956.28;3943571;32;15722584;-70
2022/05/18 12:51:54;;;;;;;;;;;;;;;43.97;12.08;100959.75;4424291;32;20020;-70
2022/05/18 12:54:23;;;;;;;;;;;;;;;44.06;11.55;100961.63;4420940;32;20403;-71
2022/05/18 12:56:51;;;;;;;;;;;;;;;45.62;11.01;100969.84;4422822;32;20353;-71
2022/05/18 12:59:19;;;;;;;;;;;;;;;44.49;11.77;100958.38;4422728;32;20087;-71
2022/05/18 13:01:46;;;;;;;;;;;;;;;44.48;11.62;100953.88;4421642;32;20048;-70
2022/05/18 13:06:50;;;;;;;;;;;;;;;43.87;11.74;100956.31;3945210;32;15724397;-70
2022/05/18 13:09:33;;;;;;;;;;;;;;;43.87;11.74;100956.31;4422852;32;20284;-71
2022/05/18 13:12:19;;;;;;;;;;;;;;;41.93;13.13;100955.22;4418194;32;19994;-71
2022/05/18 13:15:04;;;;;;;;;;;;;;;42.54;12.73;100959.97;4414739;32;19996;-72
2022/05/18 13:17:49;;;;;;;;;;;;;;;42.82;12.61;100958.50;4415735;32;20034;-71
2022/05/18 13:20:28;;;;;;;;;;;;;;;43.26;12.26;100940.00;4398809;32;20075;-71
2022/05/18 13:23:03;;;;;;;;;;;;;;;41.94;12.75;100941.94;4418154;32;20350;-72
2022/05/18 13:25:31;;;;;;;;;;;;;;;42.41;12.63;100952.66;4414449;32;20364;-71
2022/05/18 13:27:57;;;;;;;;;;;;;;;43.02;12.35;100944.69;4415479;32;19996;-71
2022/05/18 13:30:43;;;;;;;;;;;;;;;43.05;12.40;100952.25;4418161;32;20386;-70
2022/05/18 13:33:10;;;;;;;;;;;;;;;43.18;12.46;100951.44;4418282;32;20004;-72
2022/05/18 13:35:36;;;;;;;;;;;;;;;42.67;12.95;100962.16;4418454;32;19988;-70
2022/05/18 13:40:42;;;;;;;;;;;;;;;41.37;13.76;100946.84;3938528;32;15723376;-71
2022/05/18 13:43:14;;;;;;;;;;;;;;;41.37;13.76;100946.84;4424787;32;20568;-72
2022/05/18 13:45:43;;;;;;;;;;;;;;;42.61;12.92;100955.91;4417446;32;20669;-70
2022/05/18 13:48:10;;;;;;;;;;;;;;;42.60;12.41;100957.31;4426623;32;20338;-69
2022/05/18 13:50:39;;;;;;;;;;;;;;;42.52;12.08;100948.81;4424863;32;20402;-70
2022/05/18 13:53:06;;;;;;;;;;;;;;;42.50;12.40;100939.81;4403245;32;20486;-70
2022/05/18 13:55:40;;;;;;;;;;;;;;;43.06;12.28;100936.00;4427927;32;19971;-71
2022/05/18 13:58:12;;;;;;;;;;;;;;;42.83;12.71;100936.34;4428092;32;20063;-69
2022/05/18 14:00:40;;;;;;;;;;;;;;;42.69;12.54;100924.53;4427723;32;20283;-72
2022/05/18 14:03:06;;;;;;;;;;;;;;;43.27;12.36;100923.00;4423560;32;20420;-72
2022/05/18 14:05:35;;;;;;;;;;;;;;;43.80;12.11;100933.69;4427804;32;20382;-72
2022/05/18 14:08:13;;;;;;;;;;;;;;;43.41;12.24;100923.66;4425138;32;20027;-72
2022/05/18 14:10:39;;;;;;;;;;;;;;;42.35;12.95;100934.59;4412116;32;20365;-72
2022/05/18 14:13:05;;;;;;;;;;;;;;;42.54;13.04;100919.31;4427187;32;20405;-72
2022/05/18 14:15:33;;;;;;;;;;;;;;;43.40;12.37;100913.25;4426171;32;20023;-72
2022/05/18 14:17:59;;;;;;;;;;;;;;;43.35;11.95;100912.28;4421268;32;20051;-72